Time;durP1;ratioP1;P1;durP2;ratioP2;P2;SDS_P1;SDS_P2;PMS_P1;PMS_P2;Temp;Humidity;BMP_temperature;BMP_pressure;BME280_temperature;BME280_humidity;BME280_pressure;Samples;Min_cycle;Max_cycle;Signal;HPM_P1;HPM_P2
2023/10/15 01:24:53;;;;;;;69.95;65.78;;;7.20;99.90;;;;;;6300120;22;20095;-91
2023/10/15 01:27:27;;;;;;;81.70;77.15;;;7.10;99.90;;;;;;6275724;22;20015;-90
2023/10/15 01:29:55;;;;;;;71.60;67.13;;;6.20;99.90;;;;;;6272581;22;20272;-90
2023/10/15 01:32:22;;;;;;;76.85;71.82;;;7.00;99.90;;;;;;6322910;22;20023;-90
2023/10/15 01:34:52;;;;;;;59.13;55.38;;;7.00;99.90;;;;;;6264274;22;20011;-89
2023/10/15 01:39:48;;;;;;;62.08;58.60;;;7.00;99.90;;;;;;6284540;22;20076;-90
2023/10/15 01:50:23;;;;;;;76.57;71.95;;;8.00;99.90;;;;;;6283957;22;20113;-89
2023/10/15 01:52:50;;;;;;;54.33;50.90;;;6.90;99.90;;;;;;6257818;22;20018;-89
2023/10/15 01:55:18;;;;;;;68.03;63.90;;;6.80;99.90;;;;;;6258569;22;20077;-91
2023/10/15 01:57:44;;;;;;;51.35;48.08;;;6.80;99.90;;;;;;6257671;22;20038;-90
2023/10/15 02:00:33;;;;;;;74.47;69.97;;;8.00;99.90;;;;;;6257793;22;20079;-90
2023/10/15 02:02:58;;;;;;;65.40;61.05;;;6.80;99.90;;;;;;6283684;22;20011;-90
2023/10/15 02:05:40;;;;;;;61.80;57.72;;;7.90;99.90;;;;;;6257690;22;20434;-90
2023/10/15 02:08:07;;;;;;;45.40;42.28;;;7.90;99.90;;;;;;6259302;22;20026;-90
2023/10/15 02:10:35;;;;;;;54.55;50.83;;;8.00;99.90;;;;;;6258723;22;20011;-90
2023/10/15 02:13:04;;;;;;;43.08;39.63;;;7.70;99.90;;;;;;6259365;22;20011;-91
2023/10/15 02:15:37;;;;;;;56.00;52.17;;;6.90;99.90;;;;;;6259949;22;20016;-91
2023/10/15 02:18:04;;;;;;;33.88;31.33;;;6.90;99.90;;;;;;6259859;22;20014;-90
2023/10/15 02:20:46;;;;;;;37.58;34.72;;;6.90;99.90;;;;;;6260210;22;20023;-91
2023/10/15 02:23:15;;;;;;;42.55;39.38;;;7.70;99.90;;;;;;6259755;22;20008;-88
2023/10/15 02:25:48;;;;;;;38.90;36.15;;;7.50;99.90;;;;;;6259070;22;20051;-91
2023/10/15 02:28:20;;;;;;;42.17;39.08;;;6.60;99.90;;;;;;6260012;22;20012;-91
2023/10/15 02:30:48;;;;;;;32.53;29.73;;;6.60;99.90;;;;;;6258842;22;20004;-91
2023/10/15 02:33:18;;;;;;;42.28;39.63;;;7.70;99.90;;;;;;6260217;22;20050;-91
2023/10/15 02:35:47;;;;;;;42.22;39.25;;;6.40;99.90;;;;;;6259292;22;20012;-92
2023/10/15 02:38:14;;;;;;;43.67;40.63;;;7.50;99.90;;;;;;6258712;22;20012;-92
2023/10/15 02:41:03;;;;;;;31.63;29.52;;;6.90;99.90;;;;;;6260061;22;20015;-91
2023/10/15 02:43:30;;;;;;;28.92;26.58;;;6.20;99.90;;;;;;6259361;22;20013;-91
2023/10/15 02:46:35;;;;;;;39.53;36.88;;;6.30;99.90;;;;;;6259242;22;20012;-91
2023/10/15 02:48:49;;;;;;;28.25;26.02;;;6.90;99.90;;;;;;6280239;22;20035;-91
2023/10/15 02:51:18;;;;;;;59.35;55.30;;;6.40;99.90;;;;;;6257833;22;20446;-92
2023/10/15 02:53:50;;;;;;;29.75;27.42;;;7.40;99.90;;;;;;6260268;22;20016;-91
2023/10/15 02:56:17;;;;;;;42.30;39.13;;;6.50;99.90;;;;;;6260356;22;20091;-92
2023/10/15 02:58:44;;;;;;;33.42;30.58;;;7.00;99.90;;;;;;6259405;22;20743;-91
2023/10/15 03:01:19;;;;;;;44.53;41.08;;;7.80;99.90;;;;;;6259821;22;20016;-89
2023/10/15 03:03:55;;;;;;;35.15;32.22;;;6.60;99.90;;;;;;6258884;22;20016;-91
2023/10/15 03:06:34;;;;;;;36.40;33.90;;;7.80;99.90;;;;;;6261935;22;20011;-88
2023/10/15 03:09:00;;;;;;;34.55;32.28;;;8.00;99.90;;;;;;6270690;22;20004;-90
2023/10/15 03:11:31;;;;;;;45.33;42.20;;;7.70;99.90;;;;;;6269127;22;20020;-91
2023/10/15 03:14:00;;;;;;;43.88;40.83;;;8.10;99.90;;;;;;6269084;22;20018;-91
2023/10/15 03:16:31;;;;;;;39.15;36.60;;;8.00;99.90;;;;;;6268634;22;20018;-89
2023/10/15 03:19:04;;;;;;;50.00;47.05;;;8.10;99.90;;;;;;6260162;22;20034;-90
2023/10/15 03:21:30;;;;;;;;;;;7.00;99.90;;;;;;6261873;22;20023;-90
2023/10/15 03:23:57;;;;;;;48.55;45.50;;;8.10;99.90;;;;;;6259715;22;20254;-90
2023/10/15 03:26:32;;;;;;;43.85;41.00;;;8.20;99.90;;;;;;6259501;22;20027;-90
2023/10/15 03:28:58;;;;;;;43.83;41.15;;;8.00;99.90;;;;;;6259561;22;20015;-90
2023/10/15 03:31:27;;;;;;;49.45;46.08;;;6.80;99.90;;;;;;6259830;22;20022;-91
2023/10/15 03:44:49;;;;;;;49.28;46.17;;;6.50;99.90;;;;;;6284577;22;20417;-91
2023/10/15 03:47:17;;;;;;;49.25;46.15;;;7.40;99.90;;;;;;6235388;22;20338;-91
2023/10/15 03:49:45;;;;;;;47.67;44.92;;;6.50;99.90;;;;;;6259347;22;20043;-91
2023/10/15 03:52:20;;;;;;;61.78;57.85;;;7.00;99.90;;;;;;6259398;22;20020;-90
2023/10/15 03:54:55;;;;;;;51.75;48.65;;;7.50;99.90;;;;;;6258520;22;20018;-90
2023/10/15 03:57:34;;;;;;;51.33;48.17;;;7.40;99.90;;;;;;6257654;22;20011;-90
2023/10/15 04:00:01;;;;;;;53.78;50.47;;;7.90;99.90;;;;;;6260201;22;20023;-89
2023/10/15 04:02:29;;;;;;;111.05;105.10;;;6.70;99.90;;;;;;6257440;22;20012;-90
2023/10/15 04:05:07;;;;;;;63.35;59.92;;;7.80;99.90;;;;;;6259111;22;20012;-90
2023/10/15 04:07:38;;;;;;;58.13;54.53;;;6.90;99.90;;;;;;6258574;22;20428;-90
2023/10/15 04:10:06;;;;;;;44.53;41.92;;;6.70;99.90;;;;;;6260251;22;20045;-90
2023/10/15 04:12:34;;;;;;;52.45;49.38;;;6.70;99.90;;;;;;6258436;22;20039;-90
2023/10/15 04:15:02;;;;;;;50.20;47.13;;;7.70;99.90;;;;;;6259603;22;20031;-89
2023/10/15 04:17:29;;;;;;;37.95;35.63;;;7.00;99.90;;;;;;6233774;22;20012;-90
2023/10/15 04:19:55;;;;;;;44.35;41.58;;;6.90;99.90;;;;;;6257730;22;20008;-90
2023/10/15 04:22:21;;;;;;;45.40;42.78;;;6.70;99.90;;;;;;6258170;22;20022;-88
2023/10/15 04:24:50;;;;;;;39.15;36.85;;;7.80;99.90;;;;;;6259066;22;20027;-90
2023/10/15 04:27:17;;;;;;;41.70;39.00;;;6.60;99.90;;;;;;6256980;22;20016;-91
2023/10/15 04:29:51;;;;;;;36.17;34.03;;;7.60;99.90;;;;;;6257794;22;20008;-90
2023/10/15 04:32:28;;;;;;;38.42;36.17;;;7.30;99.90;;;;;;6257738;22;20050;-90
2023/10/15 04:37:58;;;;;;;38.22;35.78;;;7.90;99.90;;;;;;6200035;22;20069;-89
2023/10/15 04:40:23;;;;;;;40.35;37.88;;;6.70;99.90;;;;;;6258618;22;20012;-91
2023/10/15 04:42:51;;;;;;;39.28;37.03;;;7.70;99.90;;;;;;6258597;22;20434;-90
2023/10/15 04:45:35;;;;;;;41.42;39.05;;;6.40;99.90;;;;;;6258616;22;19995;-90
2023/10/15 04:48:14;;;;;;;36.03;33.45;;;6.70;99.90;;;;;;6259201;22;20045;-92
2023/10/15 04:50:43;;;;;;;38.22;35.90;;;6.60;99.90;;;;;;6236199;22;20012;-91
2023/10/15 04:53:23;;;;;;;36.33;34.28;;;6.60;99.90;;;;;;6262006;22;20079;-90
2023/10/15 04:55:54;;;;;;;41.80;39.08;;;7.10;99.90;;;;;;6261958;22;20042;-90
2023/10/15 04:58:20;;;;;;;32.97;30.73;;;6.60;99.90;;;;;;6260148;22;20016;-90
2023/10/15 05:00:50;;;;;;;36.75;34.60;;;7.80;99.90;;;;;;6261126;22;20039;-90
2023/10/15 05:03:16;;;;;;;37.47;35.40;;;6.70;99.90;;;;;;6261964;22;20018;-89
2023/10/15 05:05:43;;;;;;;38.90;36.65;;;6.00;99.90;;;;;;6261944;22;20087;-90
2023/10/15 05:08:12;;;;;;;34.67;32.70;;;7.60;99.90;;;;;;6269157;22;20017;-90
2023/10/15 05:10:46;;;;;;;30.35;28.35;;;7.80;99.90;;;;;;6273700;22;20016;-90
2023/10/15 05:13:16;;;;;;;28.77;26.92;;;6.80;99.90;;;;;;6273948;22;20012;-90
2023/10/15 05:15:47;;;;;;;37.20;34.75;;;6.70;99.90;;;;;;6274381;22;20026;-90
2023/10/15 05:18:15;;;;;;;34.45;32.08;;;7.90;99.90;;;;;;6253881;22;20024;-91
2023/10/15 05:20:44;;;;;;;37.35;34.90;;;6.60;99.90;;;;;;6249072;22;20011;-91
2023/10/15 05:23:22;;;;;;;;;;;;;;;;;;;;;
2023/10/15 05:25:49;;;;;;;39.58;37.10;;;8.00;99.90;;;;;;6298938;22;20015;-90
2023/10/15 05:28:15;;;;;;;31.48;29.50;;;7.30;99.90;;;;;;6273716;22;20023;-91
2023/10/15 05:30:47;;;;;;;42.50;39.85;;;6.50;99.90;;;;;;6273830;22;20003;-90
2023/10/15 05:33:13;;;;;;;43.70;41.03;;;6.40;99.90;;;;;;6273553;22;20050;-89
2023/10/15 05:35:44;;;;;;;35.55;33.28;;;7.40;99.90;;;;;;6271027;22;20012;-88
2023/10/15 05:38:09;;;;;;;34.00;31.92;;;7.50;99.90;;;;;;6271800;22;20031;-89
2023/10/15 05:40:36;;;;;;;34.03;31.38;;;6.70;99.90;;;;;;6273144;22;20011;-91
2023/10/15 05:43:04;;;;;;;25.92;24.20;;;6.30;99.90;;;;;;6274314;22;20031;-87
2023/10/15 05:45:30;;;;;;;28.98;27.00;;;6.20;99.90;;;;;;6247531;22;20043;-89
2023/10/15 05:47:56;;;;;;;26.73;24.85;;;6.80;99.90;;;;;;6270789;22;20051;-90
2023/10/15 05:50:35;;;;;;;34.20;31.83;;;5.70;99.90;;;;;;6272094;22;20008;-92
2023/10/15 05:53:00;;;;;;;31.38;29.20;;;5.50;99.90;;;;;;6246133;22;20000;-90
2023/10/15 05:55:33;;;;;;;26.48;24.23;;;7.00;99.90;;;;;;6271261;22;20060;-88
2023/10/15 05:57:59;;;;;;;29.10;27.02;;;6.10;99.90;;;;;;6247308;22;20011;-88
2023/10/15 06:00:45;;;;;;;36.35;34.00;;;6.50;99.90;;;;;;6272556;22;20104;-89
2023/10/15 06:03:11;;;;;;;27.90;25.50;;;6.00;99.90;;;;;;6272030;22;20011;-88
2023/10/15 06:05:37;;;;;;;27.80;25.80;;;7.00;99.90;;;;;;6272010;22;20000;-91
2023/10/15 06:08:05;;;;;;;26.23;24.02;;;6.10;99.90;;;;;;6271095;22;20091;-91
2023/10/15 06:10:32;;;;;;;22.98;21.02;;;6.40;99.90;;;;;;6271305;22;20008;-88
2023/10/15 06:12:58;;;;;;;40.17;37.53;;;6.30;99.90;;;;;;6268767;22;20007;-88
2023/10/15 06:15:24;;;;;;;23.27;21.42;;;6.60;99.90;;;;;;6267913;22;20015;-88
2023/10/15 06:17:50;;;;;;;31.63;29.23;;;7.30;99.90;;;;;;6266730;22;20079;-89
2023/10/15 06:20:16;;;;;;;32.72;30.58;;;7.70;99.90;;;;;;6270103;22;20022;-89
2023/10/15 06:22:43;;;;;;;23.73;21.65;;;6.50;99.90;;;;;;6269696;22;20011;-88
2023/10/15 06:25:11;;;;;;;36.80;34.08;;;6.60;99.90;;;;;;6267138;22;20027;-89
2023/10/15 06:27:40;;;;;;;39.17;36.33;;;5.80;99.90;;;;;;6269417;22;20019;-87
2023/10/15 06:30:14;;;;;;;39.47;36.20;;;5.70;99.90;;;;;;6267269;22;20030;-88
2023/10/15 06:32:42;;;;;;;35.70;33.05;;;6.70;99.90;;;;;;6268328;22;20016;-89
2023/10/15 06:35:08;;;;;;;36.45;34.15;;;6.90;99.90;;;;;;6267233;22;20026;-88
2023/10/15 06:37:34;;;;;;;35.85;32.88;;;6.80;99.90;;;;;;6266173;22;20020;-88
2023/10/15 06:40:02;;;;;;;40.03;37.33;;;7.90;99.90;;;;;;6268253;22;20331;-91
2023/10/15 06:42:28;;;;;;;39.88;37.10;;;7.50;99.90;;;;;;6235948;22;20016;-86
2023/10/15 06:44:54;;;;;;;41.97;39.15;;;8.00;99.90;;;;;;6259442;22;20015;-86
2023/10/15 06:47:19;;;;;;;33.50;31.23;;;6.90;99.90;;;;;;6260014;22;20019;-85
2023/10/15 06:49:45;;;;;;;38.22;35.53;;;7.00;99.90;;;;;;6260010;22;20445;-86
2023/10/15 06:52:11;;;;;;;42.10;38.78;;;8.10;99.90;;;;;;6261200;22;20083;-87
2023/10/15 06:54:37;;;;;;;30.77;28.77;;;6.80;99.90;;;;;;6261098;22;20070;-87
2023/10/15 06:57:04;;;;;;;33.13;30.48;;;7.00;99.90;;;;;;6260686;22;20098;-86
2023/10/15 06:59:31;;;;;;;38.60;36.15;;;7.90;99.90;;;;;;6260459;22;20170;-85
2023/10/15 07:01:56;;;;;;;36.42;34.08;;;7.00;99.90;;;;;;6260428;22;20011;-85
2023/10/15 07:04:24;;;;;;;33.08;30.88;;;7.20;99.90;;;;;;6285794;22;20031;-86
2023/10/15 07:06:49;;;;;;;35.10;32.88;;;6.70;99.90;;;;;;6260120;22;20008;-87
2023/10/15 07:09:18;;;;;;;32.47;30.05;;;7.30;99.90;;;;;;6285134;22;20038;-87
2023/10/15 07:11:44;;;;;;;36.95;34.40;;;7.20;99.90;;;;;;6259356;22;20051;-86
2023/10/15 07:14:10;;;;;;;36.53;34.28;;;6.70;99.90;;;;;;6260637;22;20018;-86
2023/10/15 07:16:35;;;;;;;36.70;34.53;;;7.90;99.90;;;;;;6260716;22;20012;-86
2023/10/15 07:19:01;;;;;;;37.85;34.80;;;7.30;99.90;;;;;;6261318;22;20063;-86
2023/10/15 07:21:27;;;;;;;30.85;28.90;;;7.50;99.90;;;;;;6261663;22;20017;-86
2023/10/15 07:23:53;;;;;;;31.80;29.55;;;7.70;99.90;;;;;;6262312;22;20016;-87
2023/10/15 07:26:18;;;;;;;42.30;39.50;;;7.10;99.90;;;;;;6265231;22;20562;-89
2023/10/15 07:28:44;;;;;;;40.85;38.08;;;7.80;99.90;;;;;;6263079;22;20019;-87
2023/10/15 07:31:12;;;;;;;43.10;40.50;;;7.00;99.90;;;;;;6264651;22;20019;-88
2023/10/15 07:33:38;;;;;;;49.03;46.17;;;7.10;99.90;;;;;;6267786;22;20522;-86
2023/10/15 07:36:04;;;;;;;43.60;40.83;;;6.50;99.90;;;;;;6267456;22;20019;-86
2023/10/15 07:38:31;;;;;;;43.80;40.83;;;6.50;99.90;;;;;;6271083;22;19999;-88
2023/10/15 07:40:56;;;;;;;40.80;38.20;;;7.30;99.90;;;;;;6243707;22;20015;-87
2023/10/15 07:43:22;;;;;;;31.15;28.83;;;7.50;99.90;;;;;;6268534;22;20016;-87
2023/10/15 07:45:48;;;;;;;44.55;41.65;;;6.40;99.90;;;;;;6265601;22;20389;-87
2023/10/15 07:48:14;;;;;;;42.30;39.38;;;5.70;99.90;;;;;;6265987;22;20008;-87
2023/10/15 07:50:40;;;;;;;40.60;37.90;;;6.70;99.90;;;;;;6265101;22;20012;-89
2023/10/15 07:53:06;;;;;;;34.03;31.77;;;6.50;99.90;;;;;;6263845;22;20026;-86
2023/10/15 07:55:32;;;;;;;35.70;33.35;;;6.50;99.90;;;;;;6269308;22;20012;-89
2023/10/15 07:57:57;;;;;;;39.42;36.92;;;7.70;99.90;;;;;;6268693;22;20004;-86
2023/10/15 08:00:23;;;;;;;52.97;49.92;;;7.00;99.90;;;;;;6266086;22;20027;-87
2023/10/15 08:02:57;;;;;;;34.67;32.33;;;7.60;99.90;;;;;;6264944;22;20038;-89
2023/10/15 08:05:24;;;;;;;33.25;31.10;;;7.10;99.90;;;;;;6270519;22;20011;-87
2023/10/15 08:07:51;;;;;;;29.40;27.17;;;6.60;99.90;;;;;;6269325;22;20008;-85
2023/10/15 08:10:21;;;;;;;43.05;40.67;;;7.80;99.90;;;;;;6266654;22;20012;-89
2023/10/15 08:12:58;;;;;;;31.08;29.13;;;7.50;99.90;;;;;;6272319;22;20000;-93
2023/10/15 08:15:24;;;;;;;36.78;34.28;;;6.60;99.90;;;;;;6242649;22;20083;-88
2023/10/15 08:17:50;;;;;;;36.00;33.25;;;7.80;99.90;;;;;;6263511;22;20038;-86
2023/10/15 08:20:16;;;;;;;39.40;36.95;;;7.00;99.90;;;;;;6262940;22;20012;-89
2023/10/15 08:22:44;;;;;;;30.83;28.85;;;7.00;99.90;;;;;;6264065;22;20023;-86
2023/10/15 08:25:13;;;;;;;36.20;33.83;;;7.70;99.90;;;;;;6264045;22;20019;-87
2023/10/15 08:27:44;;;;;;;39.53;36.83;;;7.20;99.90;;;;;;6266219;22;20042;-87
2023/10/15 08:30:12;;;;;;;38.80;36.05;;;7.30;99.90;;;;;;6264630;22;20015;-87
2023/10/15 08:32:45;;;;;;;39.03;36.70;;;7.30;99.90;;;;;;6264186;22;20019;-88
2023/10/15 08:35:16;;;;;;;36.53;34.00;;;8.10;99.90;;;;;;6263998;22;20098;-88
2023/10/15 08:37:44;;;;;;;35.28;32.92;;;7.30;99.90;;;;;;6266225;22;20011;-86
2023/10/15 08:40:15;;;;;;;34.65;31.73;;;7.40;99.90;;;;;;6265405;22;20027;-87
2023/10/15 08:43:08;;;;;;;35.30;32.60;;;7.60;99.90;;;;;;6264820;22;20018;-86
2023/10/15 08:45:34;;;;;;;36.50;34.22;;;7.80;99.90;;;;;;6265789;22;20011;-87
2023/10/15 08:48:03;;;;;;;39.60;36.83;;;8.00;99.90;;;;;;6266144;22;20053;-87
2023/10/15 08:50:30;;;;;;;42.08;39.22;;;8.10;99.90;;;;;;6290926;22;20092;-86
2023/10/15 08:52:57;;;;;;;48.28;45.00;;;8.40;99.90;;;;;;6263485;22;20012;-86
2023/10/15 08:55:24;;;;;;;33.35;30.83;;;8.80;99.90;;;;;;6291018;22;20011;-88
2023/10/15 08:57:56;;;;;;;41.10;38.30;;;8.50;99.90;;;;;;6265851;22;20011;-88
2023/10/15 09:00:26;;;;;;;54.92;51.80;;;9.10;99.90;;;;;;6266867;22;20008;-88
2023/10/15 09:02:54;;;;;;;43.72;41.03;;;9.30;99.90;;;;;;6264765;22;20019;-87
2023/10/15 09:05:20;;;;;;;52.17;48.97;;;8.90;99.90;;;;;;6289138;22;20014;-88
2023/10/15 09:07:47;;;;;;;41.05;38.42;;;9.80;99.90;;;;;;6265062;22;20016;-87
2023/10/15 09:10:15;;;;;;;47.22;44.33;;;9.70;99.90;;;;;;6264594;22;20015;-87
2023/10/15 09:12:40;;;;;;;45.65;42.70;;;9.80;99.90;;;;;;6264121;22;20015;-87
2023/10/15 09:15:16;;;;;;;57.72;54.20;;;9.50;99.90;;;;;;6264167;22;20015;-87
2023/10/15 09:17:49;;;;;;;58.70;55.03;;;9.70;99.90;;;;;;6262574;22;20011;-87
2023/10/15 09:20:26;;;;;;;53.08;49.58;;;9.10;99.90;;;;;;6262769;22;20094;-86
2023/10/15 09:22:52;;;;;;;47.03;43.95;;;9.50;99.90;;;;;;6262626;22;20012;-87
2023/10/15 09:25:18;;;;;;;61.53;56.85;;;9.40;99.90;;;;;;6262376;22;20012;-87
2023/10/15 09:27:47;;;;;;;47.47;44.63;;;9.10;99.90;;;;;;6262204;22;20049;-86
2023/10/15 09:30:19;;;;;;;45.75;42.90;;;9.70;99.90;;;;;;6262058;22;20015;-87
2023/10/15 09:32:48;;;;;;;45.13;42.33;;;8.70;99.90;;;;;;6263293;22;20034;-87
2023/10/15 09:35:14;;;;;;;51.70;48.58;;;9.40;99.90;;;;;;6288715;22;20016;-88
2023/10/15 09:37:41;;;;;;;39.75;37.33;;;9.60;99.90;;;;;;6262665;22;20067;-87
2023/10/15 09:40:10;;;;;;;51.25;48.13;;;8.80;99.90;;;;;;6263654;22;20016;-86
2023/10/15 09:42:39;;;;;;;54.13;50.95;;;8.80;99.90;;;;;;6262606;22;20307;-86
2023/10/15 09:45:08;;;;;;;51.75;48.35;;;8.90;99.90;;;;;;6261905;22;20019;-86
2023/10/15 09:47:39;;;;;;;38.40;35.65;;;8.80;99.90;;;;;;6265697;22;20067;-86
2023/10/15 09:50:09;;;;;;;55.50;52.05;;;9.90;99.90;;;;;;6263322;22;20087;-88
2023/10/15 09:52:37;;;;;;;53.63;50.22;;;8.90;99.90;;;;;;6263018;22;20038;-87
2023/10/15 09:55:11;;;;;;;50.88;47.47;;;8.80;99.90;;;;;;6262876;22;20065;-87
2023/10/15 09:57:38;;;;;;;;;;;8.70;99.90;;;;;;6247441;22;20019;-88
2023/10/15 10:00:14;;;;;;;46.95;43.92;;;9.90;99.90;;;;;;6246194;22;19915;-87
2023/10/15 10:02:48;;;;;;;56.20;52.60;;;8.90;99.90;;;;;;6296968;22;20083;-86
2023/10/15 10:05:49;;;;;;;55.67;52.10;;;9.20;99.90;;;;;;6244977;22;20191;-87
2023/10/15 10:08:33;;;;;;;56.42;53.00;;;8.90;99.90;;;;;;6245688;22;20016;-87
2023/10/15 10:11:11;;;;;;;62.55;58.70;;;9.00;99.90;;;;;;6271241;22;20016;-85
2023/10/15 10:14:02;;;;;;;71.60;66.90;;;9.00;99.90;;;;;;6243838;22;20035;-85
2023/10/15 10:16:30;;;;;;;52.90;49.42;;;9.00;99.90;;;;;;6296248;22;20018;-85
2023/10/15 10:18:56;;;;;;;77.93;73.28;;;9.00;99.90;;;;;;6270375;22;20011;-85
2023/10/15 10:21:27;;;;;;;53.40;49.80;;;9.10;99.90;;;;;;6243780;22;20004;-85
2023/10/15 10:23:53;;;;;;;42.65;39.97;;;9.10;99.90;;;;;;6271024;22;20042;-85
2023/10/15 10:26:19;;;;;;;49.47;46.58;;;9.20;99.90;;;;;;6296709;22;20015;-86
2023/10/15 10:28:46;;;;;;;58.08;54.58;;;9.40;99.90;;;;;;6270402;22;20019;-86
2023/10/15 10:31:13;;;;;;;52.00;48.47;;;9.50;99.90;;;;;;6270511;22;20020;-85
2023/10/15 10:33:42;;;;;;;63.88;59.42;;;9.90;99.90;;;;;;6244361;22;20015;-85
2023/10/15 10:36:12;;;;;;;63.55;59.28;;;9.90;99.90;;;;;;6270232;22;20051;-85
2023/10/15 10:38:39;;;;;;;66.68;62.63;;;10.10;99.90;;;;;;6269806;22;20112;-84
2023/10/15 10:41:12;;;;;;;60.35;56.60;;;10.10;99.90;;;;;;6245525;22;20012;-85
2023/10/15 10:43:40;;;;;;;54.50;51.15;;;10.20;99.90;;;;;;6245461;22;20012;-85
2023/10/15 10:46:06;;;;;;;55.22;51.80;;;10.10;99.90;;;;;;6270801;22;20477;-85
2023/10/15 10:48:33;;;;;;;46.72;43.53;;;11.00;99.90;;;;;;6270402;22;20041;-85
2023/10/15 10:51:08;;;;;;;62.80;59.13;;;10.50;99.90;;;;;;6244739;22;20050;-85
2023/10/15 10:53:34;;;;;;;47.88;44.88;;;10.40;99.90;;;;;;6245126;22;20015;-85
2023/10/15 10:56:04;;;;;;;65.20;61.47;;;10.50;99.90;;;;;;6245172;22;20008;-86
2023/10/15 10:58:30;;;;;;;46.38;43.63;;;10.50;99.90;;;;;;6270407;22;20004;-85
2023/10/15 11:00:57;;;;;;;46.67;43.88;;;11.20;99.90;;;;;;6270538;22;20068;-86
2023/10/15 11:03:25;;;;;;;43.17;40.42;;;10.60;99.90;;;;;;6270728;22;20054;-85
2023/10/15 11:05:55;;;;;;;24.70;22.92;;;10.70;99.90;;;;;;6269526;22;20012;-85
2023/10/15 11:08:22;;;;;;;23.02;21.58;;;10.90;99.90;;;;;;6270109;22;20015;-85
2023/10/15 11:10:48;;;;;;;34.30;31.95;;;11.10;99.90;;;;;;6244749;22;20011;-86
2023/10/15 11:13:17;;;;;;;61.15;57.60;;;11.40;99.90;;;;;;6251218;22;20019;-85
2023/10/15 11:15:44;;;;;;;41.92;39.35;;;10.80;99.90;;;;;;6303790;22;20019;-85
2023/10/15 11:18:10;;;;;;;41.72;39.05;;;10.30;99.90;;;;;;6277073;22;20012;-84
2023/10/15 11:20:36;;;;;;;81.80;77.20;;;10.40;99.90;;;;;;6251399;22;20018;-84
2023/10/15 11:23:05;;;;;;;69.80;65.45;;;10.60;99.90;;;;;;6277860;22;20011;-84
2023/10/15 11:25:34;;;;;;;67.35;63.42;;;9.70;99.90;;;;;;6253165;22;20008;-85
2023/10/15 11:28:04;;;;;;;46.20;43.45;;;9.50;99.90;;;;;;6254536;22;20460;-84
2023/10/15 11:30:31;;;;;;;62.53;58.97;;;9.40;99.90;;;;;;6305853;22;20086;-83
2023/10/15 11:32:56;;;;;;;61.60;58.03;;;10.00;99.90;;;;;;6303343;22;20421;-83
2023/10/15 11:35:22;;;;;;;58.83;55.33;;;9.90;99.90;;;;;;6280829;22;20011;-84
2023/10/15 11:37:50;;;;;;;56.85;53.28;;;10.50;99.90;;;;;;6281375;22;20031;-85
2023/10/15 11:40:19;;;;;;;55.35;52.03;;;9.70;99.90;;;;;;6281610;22;20008;-85
2023/10/15 11:42:54;;;;;;;56.33;52.88;;;9.80;99.90;;;;;;6304758;22;20007;-84
2023/10/15 11:45:31;;;;;;;62.35;58.58;;;9.90;99.90;;;;;;6253707;22;20046;-85
2023/10/15 11:47:58;;;;;;;52.47;49.22;;;10.00;99.90;;;;;;6252344;22;20016;-84
2023/10/15 11:50:24;;;;;;;53.65;50.55;;;10.80;99.90;;;;;;6280253;22;20109;-84
2023/10/15 11:52:52;;;;;;;56.72;53.55;;;10.20;99.90;;;;;;6281607;22;20065;-84
2023/10/15 11:55:24;;;;;;;59.00;55.20;;;10.90;99.90;;;;;;6281613;22;20081;-85
2023/10/15 11:57:50;;;;;;;45.20;42.33;;;11.10;99.90;;;;;;6278632;22;20012;-84
2023/10/15 12:00:33;;;;;;;55.08;51.60;;;10.70;99.90;;;;;;6255678;22;20008;-84
2023/10/15 12:03:00;;;;;;;59.55;56.00;;;10.30;99.90;;;;;;6279794;22;20023;-83
2023/10/15 12:05:33;;;;;;;69.80;65.57;;;10.70;99.90;;;;;;6256888;22;20019;-86
2023/10/15 12:08:00;;;;;;;60.40;56.45;;;10.70;99.90;;;;;;6285352;22;20446;-86
2023/10/15 12:10:26;;;;;;;61.63;57.67;;;10.40;99.90;;;;;;6258945;22;20011;-85
2023/10/15 12:12:52;;;;;;;58.67;55.00;;;10.50;99.90;;;;;;6310652;22;20012;-86
2023/10/15 12:15:18;;;;;;;55.72;52.25;;;10.50;99.90;;;;;;6260394;22;20026;-86
2023/10/15 12:17:44;;;;;;;66.22;61.58;;;10.10;99.90;;;;;;6259338;22;20008;-85
2023/10/15 12:20:12;;;;;;;62.35;58.60;;;10.60;99.90;;;;;;6285866;22;20061;-85
2023/10/15 12:22:39;;;;;;;69.95;65.53;;;9.80;99.90;;;;;;6260201;22;20070;-86
2023/10/15 12:25:06;;;;;;;53.22;49.72;;;10.00;99.90;;;;;;6258030;22;20015;-84
2023/10/15 12:27:36;;;;;;;56.80;53.22;;;10.10;99.90;;;;;;6257803;22;20051;-85
2023/10/15 12:30:05;;;;;;;68.78;64.45;;;10.30;99.90;;;;;;6258776;22;20150;-85
2023/10/15 12:32:31;;;;;;;51.67;48.13;;;10.40;99.90;;;;;;6257659;22;20015;-85
2023/10/15 12:34:58;;;;;;;56.40;52.58;;;9.90;99.90;;;;;;6258408;22;20019;-85
2023/10/15 12:37:29;;;;;;;44.85;41.78;;;10.40;99.90;;;;;;6258485;22;20051;-86
2023/10/15 12:39:55;;;;;;;54.40;51.13;;;10.60;99.90;;;;;;6259627;22;20007;-85
2023/10/15 12:42:21;;;;;;;64.15;60.13;;;10.70;99.90;;;;;;6263773;22;20061;-86
2023/10/15 12:44:47;;;;;;;48.17;45.00;;;10.90;99.90;;;;;;6260131;22;20193;-84
2023/10/15 12:47:13;;;;;;;40.08;37.33;;;11.30;99.90;;;;;;6258609;22;20440;-86
2023/10/15 12:49:39;;;;;;;41.88;39.05;;;10.60;99.90;;;;;;6260435;22;20016;-86
2023/10/15 12:52:08;;;;;;;41.47;38.47;;;10.60;99.90;;;;;;6260426;22;20012;-85
2023/10/15 12:54:37;;;;;;;43.60;40.70;;;11.40;99.90;;;;;;6261399;22;20015;-87
2023/10/15 12:57:04;;;;;;;54.28;50.58;;;10.60;99.90;;;;;;6262879;22;20019;-85
2023/10/15 12:59:30;;;;;;;35.95;33.50;;;10.80;99.90;;;;;;6284177;22;20033;-85
2023/10/15 13:01:56;;;;;;;47.95;44.85;;;10.80;99.90;;;;;;6258170;22;20312;-85
2023/10/15 13:04:22;;;;;;;42.17;38.85;;;11.60;99.90;;;;;;6284139;22;20091;-84
2023/10/15 13:06:48;;;;;;;36.25;33.78;;;11.00;99.90;;;;;;6284215;22;20059;-85
2023/10/15 13:09:19;;;;;;;48.15;45.00;;;11.30;99.90;;;;;;6284475;22;20020;-85
2023/10/15 13:11:45;;;;;;;48.25;45.05;;;11.60;99.90;;;;;;6285048;22;20016;-85
2023/10/15 13:14:11;;;;;;;34.53;31.90;;;11.20;99.90;;;;;;6311336;22;20131;-87
2023/10/15 13:16:37;;;;;;;39.50;36.80;;;11.30;99.90;;;;;;6261098;22;20041;-87
2023/10/15 13:19:04;;;;;;;31.48;29.35;;;11.20;99.90;;;;;;6261226;22;20446;-86
2023/10/15 13:21:31;;;;;;;35.58;33.33;;;11.50;99.90;;;;;;6259156;22;20038;-87
2023/10/15 13:23:57;;;;;;;40.22;37.80;;;11.10;99.90;;;;;;6261000;22;20137;-86
2023/10/15 13:26:24;;;;;;;54.08;50.78;;;11.00;99.90;;;;;;6258887;22;20071;-85
2023/10/15 13:28:51;;;;;;;61.53;57.85;;;10.90;99.90;;;;;;6257395;22;20098;-86
2023/10/15 13:31:17;;;;;;;58.72;55.17;;;11.20;99.90;;;;;;6258108;22;20015;-87
2023/10/15 13:33:43;;;;;;;55.13;51.65;;;10.30;99.90;;;;;;6258684;22;20019;-86
2023/10/15 13:36:13;;;;;;;45.70;42.88;;;10.00;99.90;;;;;;6309212;22;20090;-86
2023/10/15 13:38:41;;;;;;;67.93;63.70;;;10.10;99.90;;;;;;6257978;22;20011;-87
2023/10/15 13:41:08;;;;;;;54.33;50.90;;;10.00;99.90;;;;;;6258914;22;20018;-85
2023/10/15 13:43:35;;;;;;;61.92;58.15;;;10.50;99.90;;;;;;6282005;22;20007;-85
2023/10/15 13:46:04;;;;;;;53.38;49.70;;;9.80;99.90;;;;;;6258093;22;20127;-85
2023/10/15 13:48:30;;;;;;;56.05;52.53;;;9.70;99.90;;;;;;6257935;22;20015;-85
2023/10/15 13:50:56;;;;;;;54.65;51.10;;;10.20;99.90;;;;;;6283493;22;20023;-85
2023/10/15 13:53:22;;;;;;;62.53;58.35;;;9.70;99.90;;;;;;6283067;22;20452;-85
2023/10/15 13:55:48;;;;;;;51.72;48.05;;;9.70;99.90;;;;;;6258276;22;20012;-85
2023/10/15 13:58:13;;;;;;;58.70;55.10;;;9.90;99.90;;;;;;6284141;22;20015;-88
2023/10/15 14:00:40;;;;;;;60.55;56.85;;;9.90;99.90;;;;;;6265460;22;20012;-88
2023/10/15 14:03:06;;;;;;;58.65;54.78;;;10.00;99.90;;;;;;6264890;22;20008;-87
2023/10/15 14:05:36;;;;;;;62.85;58.50;;;10.40;99.90;;;;;;6267879;22;20022;-88
2023/10/15 14:08:02;;;;;;;52.97;49.63;;;10.50;99.90;;;;;;6265363;22;20015;-89
2023/10/15 14:10:28;;;;;;;60.50;56.65;;;10.20;99.90;;;;;;6262724;22;20007;-86
2023/10/15 14:12:53;;;;;;;34.78;32.38;;;10.30;99.90;;;;;;6263420;22;20033;-87
2023/10/15 14:15:19;;;;;;;60.80;56.90;;;10.70;99.90;;;;;;6261189;22;20014;-87
2023/10/15 14:17:46;;;;;;;49.92;46.42;;;10.70;99.90;;;;;;6261605;22;20011;-87
2023/10/15 14:20:15;;;;;;;52.88;49.33;;;11.20;99.90;;;;;;6262116;22;20016;-88
2023/10/15 14:22:44;;;;;;;49.28;45.90;;;10.50;99.90;;;;;;6260899;22;20434;-87
2023/10/15 14:25:11;;;;;;;39.88;37.25;;;11.00;99.90;;;;;;6258231;22;20012;-85
2023/10/15 14:27:37;;;;;;;58.45;54.80;;;11.10;99.90;;;;;;6257119;22;20020;-86
2023/10/15 14:30:07;;;;;;;48.60;45.28;;;10.60;99.90;;;;;;6285975;22;20011;-85
2023/10/15 14:32:33;;;;;;;44.50;41.65;;;10.50;99.90;;;;;;6258016;22;20090;-84